Terminal Aerodrome Forecast
Issued by NWS

Home | Current Version | Previous Version | Text Only | Print | Product List | Glossary Off
Versions: 1 2 3 4 5 6 7 8 9 10 11 12 13

000
FTUS43 KIWX 262339
TAFSBN
TAF
KSBN 262339Z 2700/2724 06014KT 6SM -SHRA SCT030 OVC080
      TEMPO 2702/2706 3SM -SHRA BR SCT015 OVC030
     FM271000 02010KT P6SM SCT020 BKN040
      TEMPO 2710/2714 6SM -SHRA OVC020
     FM271600 34014G22KT P6SM BKN035=

USA.gov is the U.S. government's official web portal to all federal, state and local government web resources and services.